Map

Track Data

SID SEASON NUMBER BASIN SUBBASIN NAME ISO_TIME NATURE LAT LON WMO_WIND WMO_PRES WMO_AGENCY TRACK_TYPE DIST2LAND LANDFALL IFLAG USA_AGENCY USA_ATCF_ID USA_LAT USA_LON USA_RECORD USA_STATUS USA_WIND USA_PRES USA_SSHS USA_R34_NE USA_R34_SE USA_R34_SW USA_R34_NW USA_R50_NE USA_R50_SE USA_R50_SW USA_R50_NW USA_R64_NE USA_R64_SE USA_R64_SW USA_R64_NW USA_POCI USA_ROCI USA_RMW USA_EYE TOKYO_LAT TOKYO_LON TOKYO_GRADE TOKYO_WIND TOKYO_PRES TOKYO_R50_DIR TOKYO_R50_LONG TOKYO_R50_SHORT TOKYO_R30_DIR TOKYO_R30_LONG TOKYO_R30_SHORT TOKYO_LAND CMA_LAT CMA_LON CMA_CAT CMA_WIND CMA_PRES HKO_LAT HKO_LON HKO_CAT HKO_WIND HKO_PRES NEWDELHI_LAT NEWDELHI_LON NEWDELHI_GRADE NEWDELHI_WIND NEWDELHI_PRES NEWDELHI_CI NEWDELHI_DP NEWDELHI_POCI REUNION_LAT REUNION_LON REUNION_TYPE REUNION_WIND REUNION_PRES REUNION_TNUM REUNION_CI REUNION_RMW REUNION_R34_NE REUNION_R34_SE REUNION_R34_SW REUNION_R34_NW REUNION_R50_NE REUNION_R50_SE REUNION_R50_SW REUNION_R50_NW REUNION_R64_NE REUNION_R64_SE REUNION_R64_SW REUNION_R64_NW BOM_LAT BOM_LON BOM_TYPE BOM_WIND BOM_PRES BOM_TNUM BOM_CI BOM_RMW BOM_R34_NE BOM_R34_SE BOM_R34_SW BOM_R34_NW BOM_R50_NE BOM_R50_SE BOM_R50_SW BOM_R50_NW BOM_R64_NE BOM_R64_SE BOM_R64_SW BOM_R64_NW BOM_ROCI BOM_POCI BOM_EYE BOM_POS_METHOD BOM_PRES_METHOD NADI_LAT NADI_LON NADI_CAT NADI_WIND NADI_PRES WELLINGTON_LAT WELLINGTON_LON WELLINGTON_WIND WELLINGTON_PRES DS824_LAT DS824_LON DS824_STAGE DS824_WIND DS824_PRES TD9636_LAT TD9636_LON TD9636_STAGE TD9636_WIND TD9636_PRES TD9635_LAT TD9635_LON TD9635_WIND TD9635_PRES TD9635_ROCI NEUMANN_LAT NEUMANN_LON NEUMANN_CLASS NEUMANN_WIND NEUMANN_PRES MLC_LAT MLC_LON MLC_CLASS MLC_WIND MLC_PRES USA_GUST BOM_GUST BOM_GUST_PER REUNION_GUST REUNION_GUST_PER USA_SEAHGT USA_SEARAD_NE USA_SEARAD_SE USA_SEARAD_SW USA_SEARAD_NW STORM_SPEED STORM_DIR
1916234N16300 1916 43 NA CS NOT_NAMED 1916-08-21 06:00:00 TS 16.0000 -60.3000 55 hurdat_atl main 598 547 O_____________ hurdat_atl AL071916 16.0000 -60.3000 TS 55 0 13 293
1916234N16300 1916 43 NA CS NOT_NAMED 1916-08-21 09:00:00 TS 16.2478 -60.8997 main 547 474 P_____________ AL071916 16.2478 -60.8997 TS 60 0 13 293
1916234N16300 1916 43 NA CS NOT_NAMED 1916-08-21 12:00:00 TS 16.5000 -61.5000 65 hurdat_atl main 474 407 O_____________ hurdat_atl AL071916 16.5000 -61.5000 HU 65 1 13 294
1916234N16300 1916 43 NA CS NOT_NAMED 1916-08-21 15:00:00 TS 16.7573 -62.1001 main 402 335 P_____________ AL071916 16.7573 -62.1001 HU 70 1 13 294
1916234N16300 1916 43 NA CS NOT_NAMED 1916-08-21 18:00:00 TS 17.0000 -62.7000 75 hurdat_atl main 335 268 O_____________ hurdat_atl AL071916 17.0000 -62.7000 HU 75 1 12 292
1916234N16300 1916 43 NA CS NOT_NAMED 1916-08-21 21:00:00 TS 17.2073 -63.2927 main 268 201 P_____________ AL071916 17.2073 -63.2927 HU 80 1 12 289
1916234N16300 1916 43 NA CS NOT_NAMED 1916-08-22 00:00:00 TS 17.4000 -63.9000 85 hurdat_atl main 201 134 O_____________ hurdat_atl AL071916 17.4000 -63.9000 HU 85 2 13 288
1916234N16300 1916 43 NA CS NOT_NAMED 1916-08-22 03:00:00 TS 17.5999 -64.5426 main 134 61 P_____________ AL071916 17.5999 -64.5426 HU 90 2 13 288
1916234N16300 1916 43 NA CS NOT_NAMED 1916-08-22 06:00:00 TS 17.8000 -65.2000 95 hurdat_atl main 61 0 O_____________ hurdat_atl AL071916 17.8000 -65.2000 HU 95 2 13 288
1916234N16300 1916 43 NA CS NOT_NAMED 1916-08-22 09:00:00 TS 17.9996 -65.8352 main 0 0 P_____________ AL071916 17.9996 -65.8352 HU 85 2 13 288
1916234N16300 1916 43 NA NA NOT_NAMED 1916-08-22 12:00:00 TS 18.2000 -66.5000 75 hurdat_atl main 0 0 O_____________ hurdat_atl AL071916 18.2000 -66.5000 HU 75 1 14 287
1916234N16300 1916 43 NA NA NOT_NAMED 1916-08-22 15:00:00 TS 18.3997 -67.2202 main 0 0 P_____________ AL071916 18.3997 -67.2202 HU 70 1 15 286
1916234N16300 1916 43 NA NA NOT_NAMED 1916-08-22 18:00:00 TS 18.6000 -68.0000 65 hurdat_atl main 31 0 O_____________ hurdat_atl AL071916 18.6000 -68.0000 HU 65 1 16 284
1916234N16300 1916 43 NA NA NOT_NAMED 1916-08-22 21:00:00 TS 18.7923 -68.8353 main 0 0 P_____________ AL071916 18.7923 -68.8353 HU 62 0 17 284
1916234N16300 1916 43 NA NA NOT_NAMED 1916-08-23 00:00:00 TS 19.0000 -69.7000 60 hurdat_atl main 0 0 O_____________ hurdat_atl AL071916 19.0000 -69.7000 TS 60 0 17 285
1916234N16300 1916 43 NA NA NOT_NAMED 1916-08-23 03:00:00 TS 19.2423 -70.5651 main 0 0 P_____________ AL071916 19.2423 -70.5651 TS 57 0 17 287
1916234N16300 1916 43 NA NA NOT_NAMED 1916-08-23 06:00:00 TS 19.5000 -71.4000 55 hurdat_atl main 0 0 O_____________ hurdat_atl AL071916 19.5000 -71.4000 TS 55 0 16 288
1916234N16300 1916 43 NA NA NOT_NAMED 1916-08-23 09:00:00 TS 19.7347 -72.1879 main 0 0 P_____________ AL071916 19.7347 -72.1879 TS 50 0 15 290
1916234N16300 1916 43 NA NA NOT_NAMED 1916-08-23 12:00:00 TS 20.0000 -72.9000 45 hurdat_atl main 11 11 O_____________ hurdat_atl AL071916 20.0000 -72.9000 TS 45 0 14 295
1916234N16300 1916 43 NA NA NOT_NAMED 1916-08-23 15:00:00 TS 20.3271 -73.5302 main 56 39 P_____________ AL071916 20.3271 -73.5302 TS 45 0 13 302
1916234N16300 1916 43 NA NA NOT_NAMED 1916-08-23 18:00:00 TS 20.7000 -74.1000 45 hurdat_atl main 53 45 O_____________ hurdat_atl AL071916 20.7000 -74.1000 TS 45 0 13 306
1916234N16300 1916 43 NA NA NOT_NAMED 1916-08-23 21:00:00 TS 21.0998 -74.6651 main 55 55 P_____________ AL071916 21.0998 -74.6651 TS 42 0 13 308
1916234N16300 1916 43 NA NA NOT_NAMED 1916-08-24 00:00:00 TS 21.5000 -75.2000 40 hurdat_atl main 69 63 O_____________ hurdat_atl AL071916 21.5000 -75.2000 TS 40 0 12 308
1916234N16300 1916 43 NA NA NOT_NAMED 1916-08-24 03:00:00 TS 21.8498 -75.7080 main 84 84 P_____________ AL071916 21.8498 -75.7080 TS 40 0 12 307
1916234N16300 1916 43 NA NA NOT_NAMED 1916-08-24 06:00:00 TS 22.2000 -76.2000 40 hurdat_atl main 108 98 O_____________ hurdat_atl AL071916 22.2000 -76.2000 TS 40 0 12 309
1916234N16300 1916 43 NA NA NOT_NAMED 1916-08-24 09:00:00 TS 22.5998 -76.7001 main 108 105 P_____________ AL071916 22.5998 -76.7001 TS 37 0 12 311
1916234N16300 1916 43 NA NA NOT_NAMED 1916-08-24 12:00:00 TS 23.0000 -77.2000 35 hurdat_atl main 137 105 O_____________ hurdat_atl AL071916 23.0000 -77.2000 TS 35 0 12 309
1916234N16300 1916 43 NA NA NOT_NAMED 1916-08-24 15:00:00 TS 23.3573 -77.7003 main 94 56 P_____________ AL071916 23.3573 -77.7003 TS 35 0 12 307
1916234N16300 1916 43 NA NA NOT_NAMED 1916-08-24 18:00:00 TS 23.7000 -78.2000 35 hurdat_atl main 59 52 O_____________ hurdat_atl AL071916 23.7000 -78.2000 TS 35 0 12 307
1916234N16300 1916 43 NA NA NOT_NAMED 1916-08-24 21:00:00 TS 24.0424 -78.7078 main 67 59 P_____________ AL071916 24.0424 -78.7078 TS 37 0 12 307
1916234N16300 1916 43 NA NA NOT_NAMED 1916-08-25 00:00:00 TS 24.4000 -79.2000 40 hurdat_atl main 74 74 O_____________ hurdat_atl AL071916 24.4000 -79.2000 TS 40 0 11 308
1916234N16300 1916 43 NA NA NOT_NAMED 1916-08-25 03:00:00 TS 24.7470 -79.6916 main 83 30 P_____________ AL071916 24.7470 -79.6916 TS 40 0 11 314
1916234N16300 1916 43 NA NA NOT_NAMED 1916-08-25 06:00:00 TS 25.2000 -80.1000 40 hurdat_atl main 30 0 O_____________ hurdat_atl AL071916 25.2000 -80.1000 TS 40 0 12 327
1916234N16300 1916 43 NA NA NOT_NAMED 1916-08-25 08:00:00 TS 25.6000 -80.3000 40 hurdat_atl main 0 0 O_____________ hurdat_atl AL071916 25.6000 -80.3000 L TS 40 0 12 335
1916234N16300 1916 43 NA NA NOT_NAMED 1916-08-25 09:00:00 TS 25.7348 -80.3720 main 0 0 P_____________ AL071916 25.7348 -80.3720 TS 40 0 7 336
1916234N16300 1916 43 NA NA NOT_NAMED 1916-08-25 12:00:00 TS 26.0000 -80.5000 40 hurdat_atl main 0 0 O_____________ hurdat_atl AL071916 26.0000 -80.5000 TS 40 0 7 342
1916234N16300 1916 43 NA NA NOT_NAMED 1916-08-25 15:00:00 TS 26.4155 -80.6162 main 0 0 P_____________ AL071916 26.4155 -80.6162 TS 37 0 9 349
1916234N16300 1916 43 NA NA NOT_NAMED 1916-08-25 18:00:00 TS 26.9000 -80.7000 35 hurdat_atl main 0 0 O_____________ hurdat_atl AL071916 26.9000 -80.7000 TS 35 0 10 352
1916234N16300 1916 43 NA NA NOT_NAMED 1916-08-25 21:00:00 TS 27.3850 -80.7650 main 0 0 P_____________ AL071916 27.3850 -80.7650 TS 32 -1 10 355
1916234N16300 1916 43 NA NA NOT_NAMED 1916-08-26 00:00:00 TS 27.9000 -80.8000 30 hurdat_atl main 0 0 O_____________ hurdat_atl AL071916 27.9000 -80.8000 TD 30 -1 11 358
1916234N16300 1916 43 NA NA NOT_NAMED 1916-08-26 03:00:00 TS 28.4425 -80.8075 main 0 0 P_____________ AL071916 28.4425 -80.8075 TD 30 -1 11 0
1916234N16300 1916 43 NA NA NOT_NAMED 1916-08-26 06:00:00 TS 29.0000 -80.8000 30 hurdat_atl main 9 O_____________ hurdat_atl AL071916 29.0000 -80.8000 TD 30 -1 11 3

About IBTrACS Database

This database is a web-friendly format of International Best Track Archive for Climate Stewardship (IBTrACS), a global best track data archive curated by NOAA dating back to 1842.

Updated: 2021-12-01